sensor_id;sensor_type;location;lat;lon;timestamp;P1;durP1;ratioP1;P2;durP2;ratioP2
81807;SDS011;71241;13.676;100.700;2024-01-07T00:00:35;28.35;;;19.05;;
81807;SDS011;71241;13.676;100.700;2024-01-07T00:03:08;26.25;;;19.92;;
81807;SDS011;71241;13.676;100.700;2024-01-07T00:05:38;27.40;;;18.38;;
81807;SDS011;71241;13.676;100.700;2024-01-07T00:08:10;28.73;;;19.42;;
81807;SDS011;71241;13.676;100.700;2024-01-07T00:10:40;24.67;;;20.27;;
81807;SDS011;71241;13.676;100.700;2024-01-07T00:13:11;27.40;;;20.30;;
81807;SDS011;71241;13.676;100.700;2024-01-07T00:15:42;29.63;;;17.83;;
81807;SDS011;71241;13.676;100.700;2024-01-07T00:18:16;28.63;;;18.05;;
81807;SDS011;71241;13.676;100.700;2024-01-07T00:20:52;28.25;;;20.35;;
81807;SDS011;71241;13.676;100.700;2024-01-07T00:23:24;25.83;;;20.38;;
81807;SDS011;71241;13.676;100.700;2024-01-07T00:25:54;26.23;;;18.02;;
81807;SDS011;71241;13.676;100.700;2024-01-07T00:28:25;23.48;;;16.92;;
81807;SDS011;71241;13.676;100.700;2024-01-07T00:30:55;27.95;;;18.00;;
81807;SDS011;71241;13.676;100.700;2024-01-07T00:33:25;25.08;;;17.90;;
81807;SDS011;71241;13.676;100.700;2024-01-07T00:35:56;24.50;;;17.77;;
81807;SDS011;71241;13.676;100.700;2024-01-07T00:38:28;27.55;;;19.88;;
81807;SDS011;71241;13.676;100.700;2024-01-07T00:40:58;27.08;;;17.75;;
81807;SDS011;71241;13.676;100.700;2024-01-07T00:43:28;27.27;;;16.88;;
81807;SDS011;71241;13.676;100.700;2024-01-07T00:45:59;25.50;;;16.05;;
81807;SDS011;71241;13.676;100.700;2024-01-07T00:48:29;21.88;;;14.55;;
81807;SDS011;71241;13.676;100.700;2024-01-07T00:51:00;23.60;;;14.35;;
81807;SDS011;71241;13.676;100.700;2024-01-07T00:53:35;19.70;;;13.35;;
81807;SDS011;71241;13.676;100.700;2024-01-07T00:56:05;20.75;;;13.73;;
81807;SDS011;71241;13.676;100.700;2024-01-07T00:58:36;17.88;;;14.10;;
81807;SDS011;71241;13.676;100.700;2024-01-07T01:01:06;17.33;;;14.13;;
81807;SDS011;71241;13.676;100.700;2024-01-07T01:03:37;19.73;;;13.93;;
81807;SDS011;71241;13.676;100.700;2024-01-07T01:06:07;20.58;;;12.18;;
81807;SDS011;71241;13.676;100.700;2024-01-07T01:08:39;17.75;;;12.52;;
81807;SDS011;71241;13.676;100.700;2024-01-07T01:11:10;18.92;;;13.00;;
81807;SDS011;71241;13.676;100.700;2024-01-07T01:13:40;18.42;;;12.63;;
81807;SDS011;71241;13.676;100.700;2024-01-07T01:16:14;16.98;;;12.35;;
81807;SDS011;71241;13.676;100.700;2024-01-07T01:18:49;15.48;;;12.88;;
81807;SDS011;71241;13.676;100.700;2024-01-07T01:21:19;20.02;;;12.68;;
81807;SDS011;71241;13.676;100.700;2024-01-07T01:23:52;17.23;;;12.45;;
81807;SDS011;71241;13.676;100.700;2024-01-07T01:26:23;19.80;;;12.77;;
81807;SDS011;71241;13.676;100.700;2024-01-07T01:28:53;14.45;;;12.65;;
81807;SDS011;71241;13.676;100.700;2024-01-07T01:31:24;14.98;;;11.98;;
81807;SDS011;71241;13.676;100.700;2024-01-07T01:33:55;16.23;;;12.48;;
81807;SDS011;71241;13.676;100.700;2024-01-07T01:36:25;17.00;;;13.48;;
81807;SDS011;71241;13.676;100.700;2024-01-07T01:38:57;18.17;;;11.93;;
81807;SDS011;71241;13.676;100.700;2024-01-07T01:41:28;20.65;;;12.73;;
81807;SDS011;71241;13.676;100.700;2024-01-07T01:43:58;19.70;;;12.70;;
81807;SDS011;71241;13.676;100.700;2024-01-07T01:46:29;21.05;;;11.82;;
81807;SDS011;71241;13.676;100.700;2024-01-07T01:49:00;20.88;;;12.20;;
81807;SDS011;71241;13.676;100.700;2024-01-07T01:51:31;20.55;;;12.70;;
81807;SDS011;71241;13.676;100.700;2024-01-07T01:54:03;18.02;;;12.85;;
81807;SDS011;71241;13.676;100.700;2024-01-07T01:56:34;20.25;;;12.43;;
81807;SDS011;71241;13.676;100.700;2024-01-07T01:59:05;18.35;;;12.80;;
81807;SDS011;71241;13.676;100.700;2024-01-07T02:01:35;19.70;;;12.63;;
81807;SDS011;71241;13.676;100.700;2024-01-07T02:04:06;19.50;;;13.63;;
81807;SDS011;71241;13.676;100.700;2024-01-07T02:06:41;17.92;;;12.35;;
81807;SDS011;71241;13.676;100.700;2024-01-07T02:09:13;22.23;;;13.27;;
81807;SDS011;71241;13.676;100.700;2024-01-07T02:11:48;19.10;;;12.15;;
81807;SDS011;71241;13.676;100.700;2024-01-07T02:14:30;19.92;;;12.70;;
81807;SDS011;71241;13.676;100.700;2024-01-07T02:17:02;23.25;;;13.00;;
81807;SDS011;71241;13.676;100.700;2024-01-07T02:19:33;20.80;;;15.73;;
81807;SDS011;71241;13.676;100.700;2024-01-07T02:22:03;18.58;;;12.82;;
81807;SDS011;71241;13.676;100.700;2024-01-07T02:24:36;20.52;;;12.45;;
81807;SDS011;71241;13.676;100.700;2024-01-07T02:27:06;18.40;;;13.93;;
81807;SDS011;71241;13.676;100.700;2024-01-07T02:29:37;17.33;;;12.88;;
81807;SDS011;71241;13.676;100.700;2024-01-07T02:32:07;15.70;;;13.15;;
81807;SDS011;71241;13.676;100.700;2024-01-07T02:34:37;18.92;;;14.48;;
81807;SDS011;71241;13.676;100.700;2024-01-07T02:37:08;19.48;;;14.05;;
81807;SDS011;71241;13.676;100.700;2024-01-07T02:39:40;17.73;;;11.90;;
81807;SDS011;71241;13.676;100.700;2024-01-07T02:42:19;19.52;;;12.05;;
81807;SDS011;71241;13.676;100.700;2024-01-07T02:44:53;17.50;;;13.20;;
81807;SDS011;71241;13.676;100.700;2024-01-07T02:47:23;19.95;;;14.85;;
81807;SDS011;71241;13.676;100.700;2024-01-07T02:49:54;21.85;;;14.50;;
81807;SDS011;71241;13.676;100.700;2024-01-07T02:52:25;17.60;;;11.65;;
81807;SDS011;71241;13.676;100.700;2024-01-07T02:54:59;17.02;;;10.88;;
81807;SDS011;71241;13.676;100.700;2024-01-07T02:57:30;15.65;;;12.02;;
81807;SDS011;71241;13.676;100.700;2024-01-07T03:00:01;16.20;;;11.05;;
81807;SDS011;71241;13.676;100.700;2024-01-07T03:02:37;16.33;;;11.73;;
81807;SDS011;71241;13.676;100.700;2024-01-07T03:05:08;18.30;;;11.88;;
81807;SDS011;71241;13.676;100.700;2024-01-07T03:07:38;18.27;;;10.95;;
81807;SDS011;71241;13.676;100.700;2024-01-07T03:10:11;17.92;;;12.63;;
81807;SDS011;71241;13.676;100.700;2024-01-07T03:12:41;15.77;;;10.85;;
81807;SDS011;71241;13.676;100.700;2024-01-07T03:15:12;15.05;;;12.75;;
81807;SDS011;71241;13.676;100.700;2024-01-07T03:17:44;16.23;;;10.63;;
81807;SDS011;71241;13.676;100.700;2024-01-07T03:20:16;19.70;;;10.82;;
81807;SDS011;71241;13.676;100.700;2024-01-07T03:22:46;17.65;;;11.07;;
81807;SDS011;71241;13.676;100.700;2024-01-07T03:25:18;16.17;;;12.80;;
81807;SDS011;71241;13.676;100.700;2024-01-07T03:27:48;18.55;;;12.10;;
81807;SDS011;71241;13.676;100.700;2024-01-07T03:30:19;17.98;;;10.48;;
81807;SDS011;71241;13.676;100.700;2024-01-07T03:32:49;13.93;;;11.13;;
81807;SDS011;71241;13.676;100.700;2024-01-07T03:35:20;15.27;;;10.98;;
81807;SDS011;71241;13.676;100.700;2024-01-07T03:37:53;14.32;;;10.10;;
81807;SDS011;71241;13.676;100.700;2024-01-07T03:40:25;17.65;;;9.98;;
81807;SDS011;71241;13.676;100.700;2024-01-07T03:42:55;11.57;;;9.38;;
81807;SDS011;71241;13.676;100.700;2024-01-07T03:45:26;12.05;;;10.48;;
81807;SDS011;71241;13.676;100.700;2024-01-07T03:47:56;17.13;;;10.50;;
81807;SDS011;71241;13.676;100.700;2024-01-07T03:50:29;17.73;;;11.07;;
81807;SDS011;71241;13.676;100.700;2024-01-07T03:53:02;20.20;;;10.75;;
81807;SDS011;71241;13.676;100.700;2024-01-07T03:55:34;18.05;;;11.88;;
81807;SDS011;71241;13.676;100.700;2024-01-07T03:58:07;14.27;;;11.48;;
81807;SDS011;71241;13.676;100.700;2024-01-07T04:00:37;13.18;;;10.13;;
81807;SDS011;71241;13.676;100.700;2024-01-07T04:03:08;13.70;;;9.82;;
81807;SDS011;71241;13.676;100.700;2024-01-07T04:05:39;15.38;;;10.02;;
81807;SDS011;71241;13.676;100.700;2024-01-07T04:08:09;19.02;;;12.07;;
81807;SDS011;71241;13.676;100.700;2024-01-07T04:10:41;21.25;;;11.88;;
81807;SDS011;71241;13.676;100.700;2024-01-07T04:13:12;10.80;;;9.13;;
81807;SDS011;71241;13.676;100.700;2024-01-07T04:15:42;15.93;;;9.75;;
81807;SDS011;71241;13.676;100.700;2024-01-07T04:18:15;14.90;;;9.13;;
81807;SDS011;71241;13.676;100.700;2024-01-07T04:20:50;13.38;;;9.65;;
81807;SDS011;71241;13.676;100.700;2024-01-07T04:23:25;15.57;;;13.93;;
81807;SDS011;71241;13.676;100.700;2024-01-07T04:25:57;13.80;;;12.30;;
81807;SDS011;71241;13.676;100.700;2024-01-07T04:28:27;13.35;;;11.90;;
81807;SDS011;71241;13.676;100.700;2024-01-07T04:30:58;12.55;;;9.38;;
81807;SDS011;71241;13.676;100.700;2024-01-07T04:33:28;13.23;;;9.07;;
81807;SDS011;71241;13.676;100.700;2024-01-07T04:35:59;13.00;;;8.23;;
81807;SDS011;71241;13.676;100.700;2024-01-07T04:38:29;14.57;;;8.90;;
81807;SDS011;71241;13.676;100.700;2024-01-07T04:41:01;15.55;;;9.07;;
81807;SDS011;71241;13.676;100.700;2024-01-07T04:43:32;14.10;;;8.40;;
81807;SDS011;71241;13.676;100.700;2024-01-07T04:46:03;13.80;;;9.27;;
81807;SDS011;71241;13.676;100.700;2024-01-07T04:48:36;14.80;;;8.38;;
81807;SDS011;71241;13.676;100.700;2024-01-07T04:51:07;13.27;;;8.68;;
81807;SDS011;71241;13.676;100.700;2024-01-07T04:53:37;10.27;;;8.32;;
81807;SDS011;71241;13.676;100.700;2024-01-07T04:56:09;11.57;;;9.30;;
81807;SDS011;71241;13.676;100.700;2024-01-07T04:58:40;12.27;;;9.13;;
81807;SDS011;71241;13.676;100.700;2024-01-07T05:01:10;11.90;;;8.55;;
81807;SDS011;71241;13.676;100.700;2024-01-07T05:03:40;14.07;;;8.70;;
81807;SDS011;71241;13.676;100.700;2024-01-07T05:06:11;13.73;;;8.90;;
81807;SDS011;71241;13.676;100.700;2024-01-07T05:08:41;13.82;;;9.20;;
81807;SDS011;71241;13.676;100.700;2024-01-07T05:11:13;12.77;;;8.95;;
81807;SDS011;71241;13.676;100.700;2024-01-07T05:13:46;10.55;;;8.45;;
81807;SDS011;71241;13.676;100.700;2024-01-07T05:16:23;9.35;;;8.35;;
81807;SDS011;71241;13.676;100.700;2024-01-07T05:18:53;13.05;;;8.23;;
81807;SDS011;71241;13.676;100.700;2024-01-07T05:21:24;11.57;;;8.88;;
81807;SDS011;71241;13.676;100.700;2024-01-07T05:23:55;12.68;;;9.45;;
81807;SDS011;71241;13.676;100.700;2024-01-07T05:26:27;17.00;;;9.75;;
81807;SDS011;71241;13.676;100.700;2024-01-07T05:28:58;14.48;;;9.60;;
81807;SDS011;71241;13.676;100.700;2024-01-07T05:31:28;11.82;;;9.23;;
81807;SDS011;71241;13.676;100.700;2024-01-07T05:33:59;10.52;;;8.93;;
81807;SDS011;71241;13.676;100.700;2024-01-07T05:36:29;13.85;;;9.73;;
81807;SDS011;71241;13.676;100.700;2024-01-07T05:39:00;12.80;;;9.43;;
81807;SDS011;71241;13.676;100.700;2024-01-07T05:41:32;13.15;;;8.98;;
81807;SDS011;71241;13.676;100.700;2024-01-07T05:44:02;11.40;;;9.05;;
81807;SDS011;71241;13.676;100.700;2024-01-07T05:46:33;11.10;;;8.80;;
81807;SDS011;71241;13.676;100.700;2024-01-07T05:49:03;11.45;;;8.35;;
81807;SDS011;71241;13.676;100.700;2024-01-07T05:51:38;11.52;;;8.05;;
81807;SDS011;71241;13.676;100.700;2024-01-07T05:54:09;11.45;;;8.27;;
81807;SDS011;71241;13.676;100.700;2024-01-07T05:56:41;11.10;;;9.55;;
81807;SDS011;71241;13.676;100.700;2024-01-07T05:59:12;11.27;;;8.65;;
81807;SDS011;71241;13.676;100.700;2024-01-07T06:01:42;11.20;;;9.13;;
81807;SDS011;71241;13.676;100.700;2024-01-07T06:04:13;11.02;;;8.68;;
81807;SDS011;71241;13.676;100.700;2024-01-07T06:06:43;13.68;;;8.32;;
81807;SDS011;71241;13.676;100.700;2024-01-07T06:09:18;14.70;;;8.63;;
81807;SDS011;71241;13.676;100.700;2024-01-07T06:11:50;12.85;;;8.90;;
81807;SDS011;71241;13.676;100.700;2024-01-07T06:14:23;12.02;;;8.68;;
81807;SDS011;71241;13.676;100.700;2024-01-07T06:16:54;13.73;;;8.48;;
81807;SDS011;71241;13.676;100.700;2024-01-07T06:19:24;9.77;;;8.35;;
81807;SDS011;71241;13.676;100.700;2024-01-07T06:21:55;11.32;;;8.13;;
81807;SDS011;71241;13.676;100.700;2024-01-07T06:24:25;15.25;;;8.35;;
81807;SDS011;71241;13.676;100.700;2024-01-07T06:26:57;11.15;;;8.32;;
81807;SDS011;71241;13.676;100.700;2024-01-07T06:31:57;12.40;;;8.27;;
81807;SDS011;71241;13.676;100.700;2024-01-07T06:34:28;13.38;;;8.88;;
81807;SDS011;71241;13.676;100.700;2024-01-07T06:36:58;10.77;;;8.90;;
81807;SDS011;71241;13.676;100.700;2024-01-07T06:39:28;11.55;;;8.13;;
81807;SDS011;71241;13.676;100.700;2024-01-07T06:42:02;13.68;;;8.52;;
81807;SDS011;71241;13.676;100.700;2024-01-07T06:47:02;9.90;;;7.78;;
81807;SDS011;71241;13.676;100.700;2024-01-07T06:49:33;17.42;;;9.25;;
81807;SDS011;71241;13.676;100.700;2024-01-07T06:52:04;10.57;;;8.52;;
81807;SDS011;71241;13.676;100.700;2024-01-07T06:54:34;12.25;;;7.93;;
81807;SDS011;71241;13.676;100.700;2024-01-07T06:57:07;12.38;;;8.60;;
81807;SDS011;71241;13.676;100.700;2024-01-07T06:59:37;12.07;;;8.38;;
81807;SDS011;71241;13.676;100.700;2024-01-07T07:02:07;10.95;;;9.25;;
81807;SDS011;71241;13.676;100.700;2024-01-07T07:04:37;12.57;;;8.73;;
81807;SDS011;71241;13.676;100.700;2024-01-07T07:07:08;11.50;;;9.15;;
81807;SDS011;71241;13.676;100.700;2024-01-07T07:09:38;11.95;;;9.88;;
81807;SDS011;71241;13.676;100.700;2024-01-07T07:12:11;12.65;;;8.68;;
81807;SDS011;71241;13.676;100.700;2024-01-07T07:14:42;10.82;;;9.05;;
81807;SDS011;71241;13.676;100.700;2024-01-07T07:17:12;12.68;;;8.75;;
81807;SDS011;71241;13.676;100.700;2024-01-07T07:19:43;10.50;;;8.07;;
81807;SDS011;71241;13.676;100.700;2024-01-07T07:22:13;9.18;;;8.02;;
81807;SDS011;71241;13.676;100.700;2024-01-07T07:24:44;10.85;;;8.35;;
81807;SDS011;71241;13.676;100.700;2024-01-07T07:27:19;10.88;;;8.35;;
81807;SDS011;71241;13.676;100.700;2024-01-07T07:29:50;13.30;;;9.35;;
81807;SDS011;71241;13.676;100.700;2024-01-07T07:32:20;11.30;;;8.23;;
81807;SDS011;71241;13.676;100.700;2024-01-07T07:34:50;9.70;;;7.65;;
81807;SDS011;71241;13.676;100.700;2024-01-07T07:37:21;9.98;;;8.50;;
81807;SDS011;71241;13.676;100.700;2024-01-07T07:39:51;9.85;;;8.20;;
81807;SDS011;71241;13.676;100.700;2024-01-07T07:42:26;11.55;;;9.70;;
81807;SDS011;71241;13.676;100.700;2024-01-07T07:44:59;12.32;;;9.05;;
81807;SDS011;71241;13.676;100.700;2024-01-07T07:47:31;10.15;;;8.52;;
81807;SDS011;71241;13.676;100.700;2024-01-07T07:50:01;10.15;;;8.55;;
81807;SDS011;71241;13.676;100.700;2024-01-07T07:52:32;11.82;;;8.43;;
81807;SDS011;71241;13.676;100.700;2024-01-07T07:55:03;9.63;;;8.73;;
81807;SDS011;71241;13.676;100.700;2024-01-07T07:57:37;11.85;;;8.65;;
81807;SDS011;71241;13.676;100.700;2024-01-07T08:00:08;9.77;;;8.32;;
81807;SDS011;71241;13.676;100.700;2024-01-07T08:02:43;10.98;;;8.73;;
81807;SDS011;71241;13.676;100.700;2024-01-07T08:05:14;11.32;;;9.77;;
81807;SDS011;71241;13.676;100.700;2024-01-07T08:07:44;11.32;;;8.43;;
81807;SDS011;71241;13.676;100.700;2024-01-07T08:10:15;13.00;;;8.85;;
81807;SDS011;71241;13.676;100.700;2024-01-07T08:12:47;8.80;;;7.97;;
81807;SDS011;71241;13.676;100.700;2024-01-07T08:15:20;11.75;;;8.30;;
81807;SDS011;71241;13.676;100.700;2024-01-07T08:17:51;16.45;;;11.18;;
81807;SDS011;71241;13.676;100.700;2024-01-07T08:20:22;9.13;;;8.18;;
81807;SDS011;71241;13.676;100.700;2024-01-07T08:22:52;8.90;;;8.00;;
81807;SDS011;71241;13.676;100.700;2024-01-07T08:25:23;11.88;;;10.00;;
81807;SDS011;71241;13.676;100.700;2024-01-07T08:27:55;10.65;;;8.20;;
81807;SDS011;71241;13.676;100.700;2024-01-07T08:30:26;11.43;;;7.82;;
81807;SDS011;71241;13.676;100.700;2024-01-07T08:32:57;10.93;;;9.27;;
81807;SDS011;71241;13.676;100.700;2024-01-07T08:35:30;13.25;;;9.95;;
81807;SDS011;71241;13.676;100.700;2024-01-07T08:38:00;9.65;;;8.43;;
81807;SDS011;71241;13.676;100.700;2024-01-07T08:40:31;12.40;;;8.82;;
81807;SDS011;71241;13.676;100.700;2024-01-07T08:43:03;14.63;;;9.20;;
81807;SDS011;71241;13.676;100.700;2024-01-07T08:45:34;13.02;;;9.30;;
81807;SDS011;71241;13.676;100.700;2024-01-07T08:48:05;12.25;;;8.82;;
81807;SDS011;71241;13.676;100.700;2024-01-07T08:50:36;10.65;;;8.30;;
81807;SDS011;71241;13.676;100.700;2024-01-07T08:53:06;12.98;;;8.90;;
81807;SDS011;71241;13.676;100.700;2024-01-07T08:55:37;8.80;;;7.05;;
81807;SDS011;71241;13.676;100.700;2024-01-07T08:58:09;10.45;;;8.20;;
81807;SDS011;71241;13.676;100.700;2024-01-07T09:00:40;9.55;;;7.88;;
81807;SDS011;71241;13.676;100.700;2024-01-07T09:03:11;10.38;;;7.45;;
81807;SDS011;71241;13.676;100.700;2024-01-07T09:05:41;10.80;;;7.78;;
81807;SDS011;71241;13.676;100.700;2024-01-07T09:08:12;9.20;;;7.70;;
81807;SDS011;71241;13.676;100.700;2024-01-07T09:10:44;9.68;;;8.23;;
81807;SDS011;71241;13.676;100.700;2024-01-07T09:13:16;9.73;;;8.70;;
81807;SDS011;71241;13.676;100.700;2024-01-07T09:15:46;12.38;;;9.38;;
81807;SDS011;71241;13.676;100.700;2024-01-07T09:18:19;10.35;;;8.32;;
81807;SDS011;71241;13.676;100.700;2024-01-07T09:20:50;10.98;;;8.32;;
81807;SDS011;71241;13.676;100.700;2024-01-07T09:23:20;11.00;;;8.63;;
81807;SDS011;71241;13.676;100.700;2024-01-07T09:25:51;12.48;;;8.20;;
81807;SDS011;71241;13.676;100.700;2024-01-07T09:28:23;12.18;;;7.88;;
81807;SDS011;71241;13.676;100.700;2024-01-07T09:30:56;13.57;;;9.93;;
81807;SDS011;71241;13.676;100.700;2024-01-07T09:33:27;11.05;;;9.23;;
81807;SDS011;71241;13.676;100.700;2024-01-07T09:35:58;11.57;;;8.50;;
81807;SDS011;71241;13.676;100.700;2024-01-07T09:38:42;14.60;;;8.90;;
81807;SDS011;71241;13.676;100.700;2024-01-07T09:41:14;9.48;;;8.25;;
81807;SDS011;71241;13.676;100.700;2024-01-07T09:43:47;12.30;;;8.93;;
81807;SDS011;71241;13.676;100.700;2024-01-07T09:46:17;10.82;;;8.07;;
81807;SDS011;71241;13.676;100.700;2024-01-07T09:48:48;13.23;;;10.65;;
81807;SDS011;71241;13.676;100.700;2024-01-07T09:51:19;11.75;;;8.80;;
81807;SDS011;71241;13.676;100.700;2024-01-07T09:53:53;14.95;;;10.35;;
81807;SDS011;71241;13.676;100.700;2024-01-07T09:56:26;13.52;;;9.60;;
81807;SDS011;71241;13.676;100.700;2024-01-07T09:59:12;15.52;;;10.25;;
81807;SDS011;71241;13.676;100.700;2024-01-07T10:01:43;12.35;;;9.65;;
81807;SDS011;71241;13.676;100.700;2024-01-07T10:04:15;12.73;;;8.52;;
81807;SDS011;71241;13.676;100.700;2024-01-07T10:06:45;12.52;;;9.02;;
81807;SDS011;71241;13.676;100.700;2024-01-07T10:09:18;16.20;;;10.90;;
81807;SDS011;71241;13.676;100.700;2024-01-07T10:11:48;14.55;;;8.75;;
81807;SDS011;71241;13.676;100.700;2024-01-07T10:14:21;14.38;;;9.52;;
81807;SDS011;71241;13.676;100.700;2024-01-07T10:16:53;13.02;;;11.30;;
81807;SDS011;71241;13.676;100.700;2024-01-07T10:19:24;15.10;;;10.80;;
81807;SDS011;71241;13.676;100.700;2024-01-07T10:22:01;16.52;;;11.00;;
81807;SDS011;71241;13.676;100.700;2024-01-07T10:24:44;19.10;;;11.82;;
81807;SDS011;71241;13.676;100.700;2024-01-07T10:27:14;13.15;;;9.85;;
81807;SDS011;71241;13.676;100.700;2024-01-07T10:29:48;13.43;;;9.48;;
81807;SDS011;71241;13.676;100.700;2024-01-07T10:32:19;16.27;;;11.57;;
81807;SDS011;71241;13.676;100.700;2024-01-07T10:34:49;13.93;;;9.63;;
81807;SDS011;71241;13.676;100.700;2024-01-07T10:37:22;17.05;;;9.57;;
81807;SDS011;71241;13.676;100.700;2024-01-07T10:39:52;15.73;;;11.13;;
81807;SDS011;71241;13.676;100.700;2024-01-07T10:42:27;14.13;;;10.43;;
81807;SDS011;71241;13.676;100.700;2024-01-07T10:45:02;16.92;;;11.52;;
81807;SDS011;71241;13.676;100.700;2024-01-07T10:47:32;16.52;;;9.93;;
81807;SDS011;71241;13.676;100.700;2024-01-07T10:50:04;15.98;;;10.77;;
81807;SDS011;71241;13.676;100.700;2024-01-07T10:52:39;12.15;;;9.80;;
81807;SDS011;71241;13.676;100.700;2024-01-07T10:55:10;12.38;;;9.95;;
81807;SDS011;71241;13.676;100.700;2024-01-07T10:57:43;14.35;;;11.85;;
81807;SDS011;71241;13.676;100.700;2024-01-07T11:03:09;17.73;;;13.23;;
81807;SDS011;71241;13.676;100.700;2024-01-07T11:05:44;14.73;;;12.95;;
81807;SDS011;71241;13.676;100.700;2024-01-07T11:08:21;16.90;;;11.95;;
81807;SDS011;71241;13.676;100.700;2024-01-07T11:10:55;19.35;;;14.80;;
81807;SDS011;71241;13.676;100.700;2024-01-07T11:13:34;16.27;;;14.57;;
81807;SDS011;71241;13.676;100.700;2024-01-07T11:16:08;16.25;;;14.38;;
81807;SDS011;71241;13.676;100.700;2024-01-07T11:18:40;17.13;;;15.27;;
81807;SDS011;71241;13.676;100.700;2024-01-07T11:21:21;20.33;;;17.02;;
81807;SDS011;71241;13.676;100.700;2024-01-07T11:23:53;18.77;;;16.20;;
81807;SDS011;71241;13.676;100.700;2024-01-07T11:26:28;21.25;;;18.80;;
81807;SDS011;71241;13.676;100.700;2024-01-07T11:29:00;19.70;;;17.85;;
81807;SDS011;71241;13.676;100.700;2024-01-07T11:31:44;21.10;;;18.65;;
81807;SDS011;71241;13.676;100.700;2024-01-07T11:37:21;19.90;;;17.02;;
81807;SDS011;71241;13.676;100.700;2024-01-07T11:39:54;21.33;;;16.00;;
81807;SDS011;71241;13.676;100.700;2024-01-07T11:42:26;18.17;;;16.35;;
81807;SDS011;71241;13.676;100.700;2024-01-07T11:44:57;22.25;;;20.00;;
81807;SDS011;71241;13.676;100.700;2024-01-07T11:47:29;22.50;;;17.23;;
81807;SDS011;71241;13.676;100.700;2024-01-07T11:49:59;18.35;;;15.43;;
81807;SDS011;71241;13.676;100.700;2024-01-07T11:52:32;26.15;;;23.55;;
81807;SDS011;71241;13.676;100.700;2024-01-07T11:55:05;22.80;;;18.13;;
81807;SDS011;71241;13.676;100.700;2024-01-07T11:57:42;20.10;;;18.00;;
81807;SDS011;71241;13.676;100.700;2024-01-07T12:00:13;20.02;;;17.63;;
81807;SDS011;71241;13.676;100.700;2024-01-07T12:02:47;18.90;;;15.00;;
81807;SDS011;71241;13.676;100.700;2024-01-07T12:05:17;19.42;;;13.73;;
81807;SDS011;71241;13.676;100.700;2024-01-07T12:07:48;19.38;;;16.27;;
81807;SDS011;71241;13.676;100.700;2024-01-07T12:10:18;19.60;;;16.20;;
81807;SDS011;71241;13.676;100.700;2024-01-07T12:12:49;20.77;;;18.73;;
81807;SDS011;71241;13.676;100.700;2024-01-07T12:15:20;18.98;;;15.73;;
81807;SDS011;71241;13.676;100.700;2024-01-07T12:17:57;17.92;;;14.23;;
81807;SDS011;71241;13.676;100.700;2024-01-07T12:20:27;18.10;;;14.80;;
81807;SDS011;71241;13.676;100.700;2024-01-07T12:23:07;24.20;;;14.95;;
81807;SDS011;71241;13.676;100.700;2024-01-07T12:25:38;21.65;;;17.42;;
81807;SDS011;71241;13.676;100.700;2024-01-07T12:28:09;22.08;;;17.75;;
81807;SDS011;71241;13.676;100.700;2024-01-07T12:30:40;26.90;;;24.38;;
81807;SDS011;71241;13.676;100.700;2024-01-07T12:33:12;24.05;;;17.77;;
81807;SDS011;71241;13.676;100.700;2024-01-07T12:35:47;24.27;;;17.38;;
81807;SDS011;71241;13.676;100.700;2024-01-07T12:38:23;27.70;;;20.15;;
81807;SDS011;71241;13.676;100.700;2024-01-07T12:40:53;28.73;;;23.83;;
81807;SDS011;71241;13.676;100.700;2024-01-07T12:43:24;32.70;;;23.20;;
81807;SDS011;71241;13.676;100.700;2024-01-07T12:45:54;32.38;;;22.98;;
81807;SDS011;71241;13.676;100.700;2024-01-07T12:48:27;32.88;;;24.90;;
81807;SDS011;71241;13.676;100.700;2024-01-07T12:50:58;28.20;;;22.42;;
81807;SDS011;71241;13.676;100.700;2024-01-07T12:53:29;31.73;;;22.65;;
81807;SDS011;71241;13.676;100.700;2024-01-07T12:55:59;32.45;;;20.75;;
81807;SDS011;71241;13.676;100.700;2024-01-07T12:58:29;25.42;;;20.75;;
81807;SDS011;71241;13.676;100.700;2024-01-07T13:01:00;29.35;;;20.75;;
81807;SDS011;71241;13.676;100.700;2024-01-07T13:03:32;24.17;;;17.88;;
81807;SDS011;71241;13.676;100.700;2024-01-07T13:06:03;28.85;;;19.02;;
81807;SDS011;71241;13.676;100.700;2024-01-07T13:08:33;21.42;;;15.98;;
81807;SDS011;71241;13.676;100.700;2024-01-07T13:11:04;22.02;;;15.57;;
81807;SDS011;71241;13.676;100.700;2024-01-07T13:13:37;21.30;;;15.93;;
81807;SDS011;71241;13.676;100.700;2024-01-07T13:16:08;26.10;;;21.33;;
81807;SDS011;71241;13.676;100.700;2024-01-07T13:21:11;25.73;;;17.80;;
81807;SDS011;71241;13.676;100.700;2024-01-07T13:23:42;21.55;;;18.15;;
81807;SDS011;71241;13.676;100.700;2024-01-07T13:26:13;27.38;;;20.55;;
81807;SDS011;71241;13.676;100.700;2024-01-07T13:28:50;25.15;;;19.13;;
81807;SDS011;71241;13.676;100.700;2024-01-07T13:31:20;26.77;;;18.40;;
81807;SDS011;71241;13.676;100.700;2024-01-07T13:33:54;24.23;;;18.25;;
81807;SDS011;71241;13.676;100.700;2024-01-07T13:36:24;27.45;;;18.60;;
81807;SDS011;71241;13.676;100.700;2024-01-07T13:38:55;27.33;;;24.08;;
81807;SDS011;71241;13.676;100.700;2024-01-07T13:41:25;24.33;;;17.65;;
81807;SDS011;71241;13.676;100.700;2024-01-07T13:46:27;24.05;;;16.55;;
81807;SDS011;71241;13.676;100.700;2024-01-07T13:48:59;23.33;;;17.48;;
81807;SDS011;71241;13.676;100.700;2024-01-07T13:51:31;26.27;;;18.23;;
81807;SDS011;71241;13.676;100.700;2024-01-07T13:54:01;28.95;;;18.92;;
81807;SDS011;71241;13.676;100.700;2024-01-07T13:56:32;27.48;;;16.55;;
81807;SDS011;71241;13.676;100.700;2024-01-07T13:59:05;29.25;;;19.83;;
81807;SDS011;71241;13.676;100.700;2024-01-07T14:01:36;28.73;;;18.48;;
81807;SDS011;71241;13.676;100.700;2024-01-07T14:04:08;26.73;;;19.63;;
81807;SDS011;71241;13.676;100.700;2024-01-07T14:06:39;22.85;;;16.17;;
81807;SDS011;71241;13.676;100.700;2024-01-07T14:09:09;25.90;;;15.95;;
81807;SDS011;71241;13.676;100.700;2024-01-07T14:11:40;26.95;;;16.67;;
81807;SDS011;71241;13.676;100.700;2024-01-07T14:14:10;25.90;;;18.02;;
81807;SDS011;71241;13.676;100.700;2024-01-07T14:16:41;25.30;;;15.30;;
81807;SDS011;71241;13.676;100.700;2024-01-07T14:19:15;22.90;;;16.63;;
81807;SDS011;71241;13.676;100.700;2024-01-07T14:21:45;25.13;;;18.38;;
81807;SDS011;71241;13.676;100.700;2024-01-07T14:26:47;26.27;;;16.70;;
81807;SDS011;71241;13.676;100.700;2024-01-07T14:29:18;24.73;;;16.40;;
81807;SDS011;71241;13.676;100.700;2024-01-07T14:31:51;20.83;;;16.05;;
81807;SDS011;71241;13.676;100.700;2024-01-07T14:34:23;22.98;;;16.08;;
81807;SDS011;71241;13.676;100.700;2024-01-07T14:36:53;24.48;;;15.50;;
81807;SDS011;71241;13.676;100.700;2024-01-07T14:39:24;28.27;;;16.38;;
81807;SDS011;71241;13.676;100.700;2024-01-07T14:41:56;26.17;;;16.25;;
81807;SDS011;71241;13.676;100.700;2024-01-07T14:44:27;27.63;;;14.65;;